Time;durP1;ratioP1;P1;durP2;ratioP2;P2;SDS_P1;SDS_P2;PMS_P1;PMS_P2;Temp;Humidity;BMP_temperature;BMP_pressure;BME280_temperature;BME280_humidity;BME280_pressure;Samples;Min_cycle;Max_cycle;Signal;HPM_P1;HPM_P2
2022/10/11 00:00:54;;;;;;;3.00;1.02;;;5.60;99.90;;;;;;5074692;28;20025;-75
2022/10/11 00:03:26;;;;;;;3.70;1.00;;;5.60;99.90;;;;;;5076314;28;20033;-75
2022/10/11 00:05:52;;;;;;;6.78;0.88;;;5.60;99.90;;;;;;5076074;28;20033;-75
2022/10/11 00:08:21;;;;;;;4.05;0.43;;;5.60;99.90;;;;;;5074122;28;20124;-75
2022/10/11 00:11:25;;;;;;;1.55;0.10;;;5.50;99.90;;;;;;5074528;28;20038;-75
2022/10/11 00:13:53;;;;;;;4.28;0.32;;;7.00;99.90;;;;;;5074309;28;20495;-75
2022/10/11 00:16:22;;;;;;;2.35;0.17;;;5.30;99.90;;;;;;5075922;28;20487;-75
2022/10/11 00:18:47;;;;;;;4.50;0.88;;;5.50;99.90;;;;;;5074361;28;20032;-75
2022/10/11 00:21:19;;;;;;;4.47;0.68;;;5.40;99.90;;;;;;5075514;28;20029;-76
2022/10/11 00:23:51;;;;;;;3.05;0.32;;;5.40;99.90;;;;;;5076124;28;20521;-75
2022/10/11 00:26:17;;;;;;;2.65;0.30;;;5.30;99.90;;;;;;5075509;28;20044;-75
2022/10/11 00:28:42;;;;;;;1.70;0.13;;;5.30;99.90;;;;;;5075538;28;20021;-74
2022/10/11 00:31:13;;;;;;;1.00;0.35;;;5.20;99.90;;;;;;5075263;28;20025;-74
2022/10/11 00:33:42;;;;;;;13.65;0.77;;;5.20;99.90;;;;;;5073806;28;20106;-75
2022/10/11 00:36:08;;;;;;;3.13;0.20;;;5.20;99.90;;;;;;5075379;28;20116;-75
2022/10/11 00:38:34;;;;;;;1.52;0.15;;;5.20;99.90;;;;;;5074046;28;20066;-75
2022/10/11 00:41:02;;;;;;;2.70;0.32;;;5.20;99.90;;;;;;5074943;28;20079;-75
2022/10/11 00:43:34;;;;;;;3.03;0.30;;;5.10;99.90;;;;;;5073913;28;20162;-75
2022/10/11 00:46:06;;;;;;;5.00;1.25;;;5.10;99.90;;;;;;5075348;28;20580;-75
2022/10/11 00:48:47;;;;;;;4.13;0.77;;;5.10;99.90;;;;;;5073993;28;20067;-76
2022/10/11 00:51:25;;;;;;;6.03;1.33;;;7.40;99.90;;;;;;5074810;28;20020;-75
2022/10/11 00:53:54;;;;;;;3.90;1.00;;;5.10;99.90;;;;;;5075341;28;20414;-76
2022/10/11 00:56:25;;;;;;;10.95;1.25;;;5.10;99.90;;;;;;5073779;28;20391;-76
2022/10/11 00:58:53;;;;;;;10.07;1.65;;;5.10;99.90;;;;;;5073788;28;20058;-76
2022/10/11 01:01:18;;;;;;;3.72;1.20;;;5.10;99.90;;;;;;5073379;28;20489;-76
2022/10/11 01:03:47;;;;;;;3.53;1.08;;;5.10;99.90;;;;;;5073244;28;20028;-77
2022/10/11 01:06:18;;;;;;;7.68;1.50;;;5.10;99.90;;;;;;5073564;28;20025;-76
2022/10/11 01:08:47;;;;;;;7.05;1.38;;;5.10;99.90;;;;;;5075472;28;20104;-76
2022/10/11 01:11:16;;;;;;;8.02;0.88;;;5.20;99.90;;;;;;5075155;28;20028;-77
2022/10/11 01:14:05;;;;;;;4.90;0.90;;;5.00;99.90;;;;;;5074038;28;20017;-76
2022/10/11 01:16:48;;;;;;;5.13;0.38;;;5.00;99.90;;;;;;5066447;28;20428;-77
2022/10/11 01:19:33;;;;;;;2.40;0.28;;;4.80;99.90;;;;;;5075551;28;20115;-77
2022/10/11 01:22:33;;;;;;;5.30;0.50;;;7.40;99.90;;;;;;5075282;28;20047;-77
2022/10/11 01:25:05;;;;;;;1.23;0.20;;;4.90;99.90;;;;;;5073232;28;20387;-76
2022/10/11 01:28:03;;;;;;;3.03;0.50;;;4.80;99.90;;;;;;5074245;28;20391;-76
2022/10/11 01:30:34;;;;;;;3.15;0.40;;;4.80;99.90;;;;;;5073093;28;20029;-76
2022/10/11 01:33:17;;;;;;;4.88;0.20;;;4.60;99.90;;;;;;5073355;28;20085;-76
2022/10/11 01:36:26;;;;;;;5.45;0.20;;;4.80;99.90;;;;;;5074884;28;20103;-77
2022/10/11 01:39:19;;;;;;;2.30;0.22;;;4.80;99.90;;;;;;5073949;28;20028;-76
2022/10/11 01:41:55;;;;;;;3.95;0.25;;;4.80;99.90;;;;;;5073555;28;20048;-76
2022/10/11 01:44:24;;;;;;;3.40;0.20;;;4.70;99.90;;;;;;5073036;28;20119;-77
2022/10/11 01:46:51;;;;;;;10.40;0.40;;;4.80;99.90;;;;;;5072853;28;20074;-77
2022/10/11 01:49:20;;;;;;;4.00;0.20;;;4.80;99.90;;;;;;5073318;28;20058;-77
2022/10/11 01:51:51;;;;;;;1.52;0.13;;;4.80;99.90;;;;;;5072541;28;20109;-77
2022/10/11 01:54:54;;;;;;;2.45;0.60;;;4.80;99.90;;;;;;5073941;28;20114;-77
2022/10/11 01:57:42;;;;;;;1.20;0.35;;;4.80;99.90;;;;;;5073180;28;20063;-76
2022/10/11 02:00:15;;;;;;;3.90;0.10;;;4.70;99.90;;;;;;5073508;28;20483;-77
2022/10/11 02:02:40;;;;;;;2.60;0.20;;;4.60;99.90;;;;;;5074607;28;20514;-76
2022/10/11 02:05:46;;;;;;;0.80;0.25;;;4.60;99.90;;;;;;5073253;28;20032;-76
2022/10/11 02:08:32;;;;;;;2.95;0.15;;;4.40;99.90;;;;;;5073486;28;20040;-77
2022/10/11 02:11:27;;;;;;;3.80;0.52;;;4.60;99.90;;;;;;5073339;28;20114;-76
2022/10/11 02:14:02;;;;;;;3.50;0.30;;;4.80;99.90;;;;;;5075048;28;20332;-77
2022/10/11 02:16:39;;;;;;;9.27;1.05;;;4.60;99.90;;;;;;5072653;28;20060;-77
2022/10/11 02:19:09;;;;;;;2.92;0.68;;;4.50;99.90;;;;;;5074195;28;20025;-76
2022/10/11 02:21:42;;;;;;;3.15;0.25;;;4.50;99.90;;;;;;5072698;28;20509;-76
2022/10/11 02:24:35;;;;;;;3.85;0.20;;;6.90;99.90;;;;;;5074695;28;20440;-76
2022/10/11 02:27:06;;;;;;;1.35;0.28;;;4.40;99.90;;;;;;5067395;28;20129;-78
2022/10/11 02:29:38;;;;;;;5.95;0.47;;;4.50;99.90;;;;;;5073789;28;20099;-77
2022/10/11 02:32:12;;;;;;;1.10;0.10;;;4.50;99.90;;;;;;5072539;28;20475;-76
2022/10/11 02:34:44;;;;;;;2.92;0.10;;;4.50;99.90;;;;;;5072629;28;20074;-77
2022/10/11 02:37:33;;;;;;;2.17;0.38;;;4.50;99.90;;;;;;5075323;28;20063;-78
2022/10/11 02:40:05;;;;;;;;;;;4.50;99.90;;;;;;5076157;28;20088;-78
2022/10/11 02:42:36;;;;;;;2.05;0.10;;;4.40;99.90;;;;;;5075669;28;19974;-78
2022/10/11 02:45:30;;;;;;;1.15;0.40;;;4.40;99.90;;;;;;5075874;28;20021;-78
2022/10/11 02:47:57;;;;;;;2.33;0.00;;;4.40;99.90;;;;;;5075212;28;20032;-78
2022/10/11 02:50:22;;;;;;;1.70;0.28;;;4.30;99.90;;;;;;5076258;28;20023;-77
2022/10/11 02:52:51;;;;;;;1.75;0.20;;;4.30;99.90;;;;;;5076757;28;20021;-77
2022/10/11 02:55:17;;;;;;;3.40;0.20;;;4.30;99.90;;;;;;5077090;28;20028;-76
2022/10/11 02:57:42;;;;;;;4.75;0.40;;;4.30;99.90;;;;;;5076648;28;20016;-77
2022/10/11 03:00:12;;;;;;;0.77;0.20;;;4.30;99.90;;;;;;5076327;28;20013;-76
2022/10/11 03:02:40;;;;;;;4.28;0.40;;;4.20;99.90;;;;;;5075711;28;20032;-76
2022/10/11 03:05:06;;;;;;;2.17;0.05;;;4.20;99.90;;;;;;5077060;28;20025;-76
2022/10/11 03:07:32;;;;;;;1.17;0.20;;;4.20;99.90;;;;;;5077028;28;20047;-76
2022/10/11 03:10:01;;;;;;;1.48;0.10;;;4.20;99.90;;;;;;5076170;28;20021;-76
2022/10/11 03:12:29;;;;;;;;;;;4.20;99.90;;;;;;5077617;28;20029;-76
2022/10/11 03:14:55;;;;;;;2.47;0.30;;;4.20;99.90;;;;;;5076430;28;19905;-76
2022/10/11 03:17:24;;;;;;;4.13;0.43;;;4.20;99.90;;;;;;5075671;28;20418;-75
2022/10/11 03:19:49;;;;;;;2.33;0.08;;;4.90;99.90;;;;;;5076803;28;20416;-77
2022/10/11 03:22:25;;;;;;;1.63;0.08;;;4.20;99.90;;;;;;5077042;28;20035;-76
2022/10/11 03:24:51;;;;;;;2.08;0.30;;;4.20;99.90;;;;;;5075722;28;20063;-76
2022/10/11 03:27:22;;;;;;;11.20;0.57;;;4.10;99.90;;;;;;5076472;28;20064;-77
2022/10/11 03:29:51;;;;;;;2.03;0.30;;;4.10;99.90;;;;;;5077575;28;20545;-76
2022/10/11 03:32:16;;;;;;;2.83;0.10;;;4.10;99.90;;;;;;5076370;28;20419;-76
2022/10/11 03:34:48;;;;;;;1.92;0.45;;;4.10;99.90;;;;;;5076402;28;20020;-77
2022/10/11 03:37:17;;;;;;;1.33;0.10;;;3.90;99.90;;;;;;5078640;28;20085;-77
2022/10/11 03:39:44;;;;;;;;;;;4.00;99.90;;;;;;5076244;28;20391;-77
2022/10/11 03:42:09;;;;;;;0.93;0.25;;;4.00;99.90;;;;;;5076231;28;19954;-77
2022/10/11 03:44:35;;;;;;;2.15;0.00;;;4.00;99.90;;;;;;5075989;28;20041;-77
2022/10/11 03:47:01;;;;;;;2.15;0.10;;;4.00;99.90;;;;;;5075301;28;20025;-76
2022/10/11 03:49:32;;;;;;;4.72;0.38;;;3.90;99.90;;;;;;5074918;28;20020;-76
2022/10/11 03:51:58;;;;;;;2.28;0.20;;;3.90;99.90;;;;;;5076342;28;20514;-76
2022/10/11 03:54:27;;;;;;;4.35;0.10;;;3.90;99.90;;;;;;5076385;28;20028;-75
2022/10/11 03:56:58;;;;;;;2.83;0.50;;;3.90;99.90;;;;;;5074879;28;20032;-76
2022/10/11 03:59:26;;;;;;;4.43;0.40;;;3.90;99.90;;;;;;5076829;28;20036;-77
2022/10/11 04:01:58;;;;;;;2.05;0.10;;;3.90;99.90;;;;;;5077138;28;20041;-77
2022/10/11 04:04:29;;;;;;;3.38;0.28;;;3.70;99.90;;;;;;5075323;28;20518;-76
2022/10/11 04:06:57;;;;;;;4.28;0.30;;;3.80;99.90;;;;;;5074591;28;20028;-76
2022/10/11 04:09:25;;;;;;;3.60;0.20;;;3.70;99.90;;;;;;5074654;28;20024;-77
2022/10/11 04:11:51;;;;;;;2.47;0.30;;;3.80;99.90;;;;;;5076241;28;20025;-76
2022/10/11 04:14:19;;;;;;;3.28;0.28;;;3.80;99.90;;;;;;5075722;28;20021;-76
2022/10/11 04:16:45;;;;;;;2.38;0.43;;;3.80;99.90;;;;;;5075773;28;20032;-77
2022/10/11 04:19:14;;;;;;;5.47;0.47;;;3.80;99.90;;;;;;5074842;28;20020;-76
2022/10/11 04:21:42;;;;;;;1.35;0.32;;;3.80;99.90;;;;;;5075184;28;20032;-77
2022/10/11 04:24:13;;;;;;;3.87;0.40;;;3.80;99.90;;;;;;5075209;28;20020;-77
2022/10/11 04:26:38;;;;;;;2.67;0.50;;;5.20;99.90;;;;;;5075205;28;20093;-77
2022/10/11 04:29:04;;;;;;;1.90;0.55;;;3.80;99.90;;;;;;5075117;28;20032;-77
2022/10/11 04:31:36;;;;;;;1.85;0.10;;;3.80;99.90;;;;;;5076447;28;20019;-76
2022/10/11 04:34:04;;;;;;;3.53;0.65;;;3.80;99.90;;;;;;5077166;28;20024;-77
2022/10/11 04:36:31;;;;;;;3.75;0.47;;;3.80;99.90;;;;;;5075335;28;20088;-76
2022/10/11 04:38:57;;;;;;;1.40;0.40;;;3.80;99.90;;;;;;5074985;28;20036;-77
2022/10/11 04:41:25;;;;;;;5.10;0.45;;;3.80;99.90;;;;;;5074749;28;20143;-76
2022/10/11 04:43:51;;;;;;;2.60;0.77;;;4.40;99.90;;;;;;5076272;28;20035;-77
2022/10/11 04:46:21;;;;;;;1.75;0.47;;;3.90;99.90;;;;;;5076331;28;20024;-76
2022/10/11 04:48:49;;;;;;;3.78;1.05;;;3.90;99.90;;;;;;5075855;28;20020;-77
2022/10/11 04:51:15;;;;;;;3.30;0.28;;;3.90;99.90;;;;;;5075217;28;20328;-76
2022/10/11 04:53:41;;;;;;;3.65;0.17;;;3.80;99.90;;;;;;5075567;28;20020;-77
2022/10/11 04:56:16;;;;;;;8.70;0.52;;;3.80;99.90;;;;;;5074771;28;20475;-76
2022/10/11 04:58:43;;;;;;;2.22;0.40;;;3.80;99.90;;;;;;5074708;28;20020;-77
2022/10/11 05:01:11;;;;;;;3.67;0.60;;;3.80;99.90;;;;;;5074381;28;20028;-77
2022/10/11 05:03:37;;;;;;;1.30;0.10;;;3.80;99.90;;;;;;5075621;28;20039;-77
2022/10/11 05:06:06;;;;;;;4.95;0.90;;;3.80;99.90;;;;;;5075278;28;20029;-77
2022/10/11 05:08:34;;;;;;;2.80;0.17;;;3.80;99.90;;;;;;5074125;28;20384;-77
2022/10/11 05:11:05;;;;;;;1.35;0.10;;;3.70;99.90;;;;;;5073488;28;20082;-76
2022/10/11 05:13:35;;;;;;;5.28;0.13;;;4.30;99.90;;;;;;5073976;28;20537;-75
2022/10/11 05:16:01;;;;;;;3.60;0.40;;;3.70;99.90;;;;;;5073706;28;20024;-76
2022/10/11 05:18:27;;;;;;;2.28;0.38;;;3.70;99.90;;;;;;5073514;28;20020;-77
2022/10/11 05:21:23;;;;;;;1.88;0.45;;;3.70;99.90;;;;;;5073838;28;20117;-77
2022/10/11 05:23:51;;;;;;;2.05;0.30;;;3.70;99.90;;;;;;5074553;28;20560;-77
2022/10/11 05:26:23;;;;;;;4.43;0.40;;;3.70;99.90;;;;;;5073988;28;20490;-76
2022/10/11 05:28:56;;;;;;;2.60;0.77;;;3.70;99.90;;;;;;5075457;28;20390;-76
2022/10/11 05:31:25;;;;;;;2.88;0.40;;;3.70;99.90;;;;;;5075281;28;20017;-76
2022/10/11 05:33:51;;;;;;;2.00;0.85;;;3.60;99.90;;;;;;5073534;28;20028;-77
2022/10/11 05:36:17;;;;;;;3.80;0.35;;;3.70;99.90;;;;;;5072993;28;20394;-78
2022/10/11 05:38:48;;;;;;;3.47;0.40;;;3.60;99.90;;;;;;5072902;28;20111;-76
2022/10/11 05:41:15;;;;;;;1.33;0.10;;;4.40;99.90;;;;;;5072913;28;20047;-76
2022/10/11 05:43:40;;;;;;;2.92;0.25;;;3.60;99.90;;;;;;5074144;28;20502;-75
2022/10/11 05:46:06;;;;;;;10.13;0.47;;;3.60;99.90;;;;;;5072295;28;20119;-75
2022/10/11 05:48:32;;;;;;;4.78;0.85;;;3.60;99.90;;;;;;5072341;28;20052;-76
2022/10/11 05:50:59;;;;;;;5.20;0.50;;;3.70;99.90;;;;;;5073415;28;20029;-76
2022/10/11 05:53:25;;;;;;;4.88;0.30;;;3.70;99.90;;;;;;5072358;28;20063;-76
2022/10/11 05:55:54;;;;;;;3.10;0.40;;;3.70;99.90;;;;;;5072296;28;20069;-76
2022/10/11 05:58:20;;;;;;;4.70;0.50;;;3.70;99.90;;;;;;5072428;28;20028;-77
2022/10/11 06:00:46;;;;;;;5.53;0.73;;;3.70;99.90;;;;;;5073343;28;20028;-76
2022/10/11 06:03:13;;;;;;;2.50;0.50;;;3.70;99.90;;;;;;5073322;28;20511;-76
2022/10/11 06:05:39;;;;;;;4.78;0.45;;;3.70;99.90;;;;;;5073290;28;20035;-76
2022/10/11 06:08:07;;;;;;;3.28;0.38;;;3.80;99.90;;;;;;5072263;28;20025;-76
2022/10/11 06:10:34;;;;;;;2.80;0.23;;;3.80;99.90;;;;;;5072312;28;20028;-75
2022/10/11 06:12:59;;;;;;;3.90;0.38;;;3.70;99.90;;;;;;5071978;28;20017;-75
2022/10/11 06:15:25;;;;;;;6.65;0.73;;;3.80;99.90;;;;;;5071972;28;20553;-75
2022/10/11 06:17:51;;;;;;;9.82;1.40;;;3.80;99.90;;;;;;5073383;28;20480;-75
2022/10/11 06:20:17;;;;;;;3.80;0.57;;;3.80;99.90;;;;;;5073646;28;20024;-75
2022/10/11 06:22:42;;;;;;;6.68;0.40;;;3.80;99.90;;;;;;5075420;28;20065;-75
2022/10/11 06:25:08;;;;;;;7.00;0.80;;;3.90;99.90;;;;;;5077249;28;20039;-75
2022/10/11 06:27:34;;;;;;;4.25;1.00;;;3.90;99.90;;;;;;5077042;28;20021;-75
2022/10/11 06:29:59;;;;;;;7.85;1.48;;;3.90;99.90;;;;;;5077043;28;20062;-75
2022/10/11 06:32:25;;;;;;;5.03;1.05;;;4.00;99.90;;;;;;5077690;28;20099;-74
2022/10/11 06:34:51;;;;;;;6.43;0.70;;;4.10;99.90;;;;;;5075788;28;20055;-75
2022/10/11 06:37:16;;;;;;;4.90;0.82;;;4.20;99.90;;;;;;5075723;28;20078;-75
2022/10/11 06:39:42;;;;;;;4.72;0.70;;;4.20;99.90;;;;;;5075661;28;20119;-75
2022/10/11 06:42:09;;;;;;;5.57;1.05;;;4.30;99.90;;;;;;5076909;28;20387;-74
2022/10/11 06:44:35;;;;;;;4.78;0.52;;;4.40;99.90;;;;;;5075628;28;20028;-75
2022/10/11 06:47:00;;;;;;;4.40;0.90;;;4.50;99.90;;;;;;5075366;28;20024;-75
2022/10/11 06:49:26;;;;;;;3.50;0.98;;;4.60;99.90;;;;;;5075527;28;20016;-75
2022/10/11 06:51:51;;;;;;;7.80;0.65;;;4.70;99.90;;;;;;5075305;28;20495;-75
2022/10/11 06:54:19;;;;;;;7.50;1.15;;;4.80;99.90;;;;;;5075268;28;20487;-76
2022/10/11 06:56:45;;;;;;;6.23;0.97;;;4.90;99.90;;;;;;5076669;28;20033;-76
2022/10/11 06:59:12;;;;;;;9.45;1.23;;;5.00;99.90;;;;;;5076529;28;20086;-75
2022/10/11 07:01:37;;;;;;;5.43;1.10;;;5.10;99.90;;;;;;5076534;28;20108;-76
2022/10/11 07:04:03;;;;;;;7.95;1.15;;;5.20;99.90;;;;;;5076477;28;20059;-75
2022/10/11 07:06:30;;;;;;;4.50;0.85;;;5.20;99.90;;;;;;5075141;28;20029;-75
2022/10/11 07:08:56;;;;;;;6.65;1.58;;;5.30;99.90;;;;;;5075109;28;20020;-76
2022/10/11 07:11:24;;;;;;;4.28;1.40;;;5.40;99.90;;;;;;5075088;28;20451;-75
2022/10/11 07:13:53;;;;;;;6.03;0.88;;;5.50;99.90;;;;;;5076325;28;20413;-75
2022/10/11 07:16:19;;;;;;;3.25;0.82;;;5.70;99.90;;;;;;5074999;28;20017;-75
2022/10/11 07:18:45;;;;;;;4.95;0.88;;;5.70;99.90;;;;;;5076273;28;20028;-75
2022/10/11 07:21:13;;;;;;;4.57;1.20;;;5.90;99.90;;;;;;5076120;28;20095;-75
2022/10/11 07:23:39;;;;;;;14.38;1.90;;;6.00;99.90;;;;;;5076223;28;20378;-75
2022/10/11 07:26:05;;;;;;;6.50;1.60;;;6.20;99.90;;;;;;5076111;28;20020;-74
2022/10/11 07:28:33;;;;;;;6.50;1.23;;;6.30;99.90;;;;;;5076092;28;20024;-75
2022/10/11 07:31:11;;;;;;;9.17;2.07;;;6.40;99.90;;;;;;5075916;28;20025;-74
2022/10/11 07:33:37;;;;;;;5.63;1.20;;;6.60;99.90;;;;;;5075874;28;20074;-75
2022/10/11 07:36:04;;;;;;;11.13;2.20;;;6.70;99.90;;;;;;5075859;28;20471;-75
2022/10/11 07:38:30;;;;;;;7.60;1.33;;;6.80;99.90;;;;;;5074565;28;20055;-76
2022/10/11 07:40:56;;;;;;;7.90;1.02;;;6.90;99.90;;;;;;5075874;28;20448;-75
2022/10/11 07:43:22;;;;;;;9.15;2.08;;;7.00;99.90;;;;;;5075913;28;20033;-75
2022/10/11 07:45:53;;;;;;;7.10;1.65;;;7.10;99.90;;;;;;5074401;28;20021;-75
2022/10/11 07:48:21;;;;;;;7.78;1.65;;;8.50;99.90;;;;;;5075833;28;20017;-76
2022/10/11 07:50:47;;;;;;;4.85;0.93;;;7.10;99.90;;;;;;5075654;28;20017;-75
2022/10/11 07:53:14;;;;;;;5.38;1.40;;;7.30;99.90;;;;;;5076035;28;20430;-75
2022/10/11 07:55:41;;;;;;;6.63;1.15;;;7.40;99.90;;;;;;5074351;28;20017;-75
2022/10/11 07:58:11;;;;;;;7.07;1.45;;;7.50;99.90;;;;;;5075677;28;20028;-75
2022/10/11 08:00:38;;;;;;;8.35;1.45;;;7.60;99.90;;;;;;5074223;28;20024;-75
2022/10/11 08:03:09;;;;;;;8.27;0.98;;;7.80;99.90;;;;;;5073791;28;20388;-75
2022/10/11 08:05:38;;;;;;;10.65;1.88;;;8.00;99.90;;;;;;5074158;28;20027;-75
2022/10/11 08:08:03;;;;;;;;;;;8.20;99.90;;;;;;5074730;28;20013;-75
2022/10/11 08:10:29;;;;;;;5.65;1.25;;;8.40;99.90;;;;;;5074024;28;19905;-75
2022/10/11 08:12:54;;;;;;;6.25;1.48;;;8.60;99.90;;;;;;5074032;28;20021;-75
2022/10/11 08:15:23;;;;;;;8.10;1.90;;;8.80;99.90;;;;;;5074009;28;20009;-75
2022/10/11 08:17:51;;;;;;;3.47;0.93;;;8.90;99.90;;;;;;5073998;28;20166;-74
2022/10/11 08:20:16;;;;;;;5.00;1.48;;;9.10;99.90;;;;;;5073767;28;20024;-74
2022/10/11 08:22:42;;;;;;;9.25;2.00;;;9.30;99.90;;;;;;5075591;28;20392;-74
2022/10/11 08:25:07;;;;;;;4.18;0.63;;;9.40;99.90;;;;;;5073954;28;20387;-74
2022/10/11 08:27:36;;;;;;;10.15;0.75;;;9.60;99.90;;;;;;5073684;28;20017;-75
2022/10/11 08:30:03;;;;;;;3.70;0.80;;;9.80;99.90;;;;;;5075023;28;20047;-74
2022/10/11 08:32:29;;;;;;;5.20;1.35;;;9.90;99.90;;;;;;5075208;28;20017;-74
2022/10/11 08:34:55;;;;;;;3.67;0.88;;;10.10;99.90;;;;;;5073677;28;20502;-75
2022/10/11 08:37:20;;;;;;;5.57;0.82;;;10.20;99.90;;;;;;5074997;28;20027;-74
2022/10/11 08:39:48;;;;;;;8.38;1.38;;;10.40;99.90;;;;;;5073518;28;20476;-74
2022/10/11 08:42:29;;;;;;;7.03;0.57;;;10.50;99.90;;;;;;5074909;28;20077;-74
2022/10/11 08:45:01;;;;;;;10.75;0.98;;;10.60;99.90;;;;;;5073517;28;20108;-75
2022/10/11 08:47:41;;;;;;;9.52;1.08;;;10.80;99.90;;;;;;5072937;28;20048;-75
2022/10/11 08:50:19;;;;;;;9.77;0.47;;;10.90;99.90;;;;;;5073280;28;20027;-75
2022/10/11 08:52:54;;;;;;;7.00;1.05;;;11.10;99.90;;;;;;5074649;28;20383;-75
2022/10/11 08:55:47;;;;;;;5.93;0.38;;;11.30;99.90;;;;;;5074939;28;20070;-75
2022/10/11 08:58:19;;;;;;;9.00;1.52;;;11.40;99.90;;;;;;5074337;28;20013;-75
2022/10/11 09:00:52;;;;;;;5.93;0.30;;;11.70;99.90;;;;;;5073052;28;20021;-74
2022/10/11 09:03:20;;;;;;;8.30;0.35;;;11.70;99.90;;;;;;5072977;28;20048;-74
2022/10/11 09:06:02;;;;;;;8.52;0.77;;;11.90;99.90;;;;;;5074141;28;20032;-74
2022/10/11 09:08:46;;;;;;;7.53;1.17;;;12.00;99.90;;;;;;5074716;28;20028;-75
2022/10/11 09:11:23;;;;;;;6.22;1.00;;;12.10;99.90;;;;;;5074527;28;20017;-77
2022/10/11 09:13:52;;;;;;;4.72;1.45;;;12.30;99.90;;;;;;5072839;28;20475;-76
2022/10/11 09:16:52;;;;;;;8.27;0.77;;;12.50;99.90;;;;;;5073038;28;20454;-76
2022/10/11 09:19:24;;;;;;;1.98;0.40;;;12.80;99.90;;;;;;5104984;22;20052;-76
2022/10/11 09:22:24;;;;;;;19.50;0.80;;;13.10;99.90;;;;;;5094590;28;20032;-77
2022/10/11 09:25:12;;;;;;;7.15;0.40;;;13.40;99.90;;;;;;5080501;28;20040;-76
2022/10/11 09:27:48;;;;;;;7.15;0.77;;;13.70;99.90;;;;;;5094059;28;20032;-75
2022/10/11 09:30:17;;;;;;;5.30;0.15;;;13.80;99.90;;;;;;5094010;28;20020;-75
2022/10/11 09:32:58;;;;;;;8.95;0.32;;;14.00;99.90;;;;;;5093978;28;20055;-74
2022/10/11 09:35:23;;;;;;;3.10;0.40;;;14.00;99.90;;;;;;5093930;28;20024;-76
2022/10/11 09:38:03;;;;;;;6.55;0.10;;;14.10;99.90;;;;;;5093885;28;20027;-76
2022/10/11 09:40:37;;;;;;;8.60;0.65;;;14.20;99.90;;;;;;5093675;28;20526;-76
2022/10/11 09:43:03;;;;;;;9.50;0.20;;;14.40;99.90;;;;;;5075673;28;20053;-75
2022/10/11 09:45:29;;;;;;;5.65;0.20;;;14.60;99.90;;;;;;5075517;28;20119;-75
2022/10/11 09:47:58;;;;;;;2.65;0.10;;;14.80;99.90;;;;;;5094094;28;20029;-74
2022/10/11 09:50:25;;;;;;;5.85;0.30;;;15.00;99.90;;;;;;5093579;28;20027;-74
2022/10/11 09:52:55;;;;;;;4.18;0.30;;;15.10;99.90;;;;;;5093662;28;20065;-74
2022/10/11 09:55:49;;;;;;;7.43;0.40;;;15.20;99.90;;;;;;5093669;28;20038;-74
2022/10/11 09:58:30;;;;;;;17.80;0.30;;;15.10;99.90;;;;;;5093231;28;20470;-74
2022/10/11 10:01:02;;;;;;;6.57;0.50;;;15.20;99.90;;;;;;5093482;28;20024;-75
2022/10/11 10:03:33;;;;;;;2.80;0.10;;;15.20;99.90;;;;;;5095175;23;20044;-75
2022/10/11 10:06:20;;;;;;;9.52;0.08;;;15.10;99.90;;;;;;5093411;28;20032;-75
2022/10/11 10:08:47;;;;;;;6.85;0.10;;;15.00;99.90;;;;;;5093408;28;20123;-76
2022/10/11 10:11:13;;;;;;;7.03;0.85;;;15.00;99.90;;;;;;5092046;28;20190;-75
2022/10/11 10:13:51;;;;;;;5.07;1.00;;;15.00;99.90;;;;;;5093307;28;20401;-74
2022/10/11 10:16:31;;;;;;;6.03;0.15;;;16.20;99.90;;;;;;5093401;28;20063;-74
2022/10/11 10:19:06;;;;;;;4.65;0.20;;;15.20;99.90;;;;;;5093961;28;20030;-74
2022/10/11 10:21:37;;;;;;;3.22;0.25;;;15.30;99.90;;;;;;5093263;28;20028;-74
2022/10/11 10:24:37;;;;;;;3.30;0.00;;;15.40;99.90;;;;;;5093321;28;20020;-74
2022/10/11 10:27:15;;;;;;;3.78;0.30;;;15.40;99.90;;;;;;5093129;28;20024;-74
2022/10/11 10:29:42;;;;;;;3.63;0.00;;;15.40;99.90;;;;;;5093673;28;20478;-74
2022/10/11 10:32:52;;;;;;;4.57;0.00;;;15.50;99.90;;;;;;5091924;28;20772;-74
2022/10/11 10:35:23;;;;;;;5.25;0.03;;;15.50;99.90;;;;;;5078070;28;20070;-74
2022/10/11 10:37:52;;;;;;;5.75;0.20;;;15.60;99.90;;;;;;5091897;28;20127;-74
2022/10/11 10:40:23;;;;;;;5.72;0.30;;;15.60;99.90;;;;;;5093087;28;20024;-74
2022/10/11 10:42:49;;;;;;;6.82;0.40;;;15.70;99.90;;;;;;5091824;28;20051;-75
2022/10/11 10:45:17;;;;;;;5.97;0.57;;;15.70;99.90;;;;;;5093066;28;20453;-75
2022/10/11 10:48:16;;;;;;;7.63;0.20;;;15.90;99.90;;;;;;5092922;28;20017;-75
2022/10/11 10:50:48;;;;;;;7.68;0.35;;;15.70;99.90;;;;;;5092402;28;20024;-75
2022/10/11 10:53:40;;;;;;;8.15;0.03;;;15.80;99.90;;;;;;5092953;28;20024;-74
2022/10/11 10:56:14;;;;;;;4.00;0.20;;;15.80;99.90;;;;;;5093549;28;20050;-74
2022/10/11 10:59:01;;;;;;;8.80;0.73;;;15.90;99.90;;;;;;5092957;28;20028;-75
2022/10/11 11:01:30;;;;;;;6.90;0.30;;;15.80;99.90;;;;;;5092749;28;20482;-74
2022/10/11 11:04:08;;;;;;;2.53;0.30;;;15.70;99.90;;;;;;5093035;28;20028;-75
2022/10/11 11:06:46;;;;;;;6.25;0.38;;;15.70;99.90;;;;;;5091533;28;20028;-75
2022/10/11 11:09:38;;;;;;;3.35;0.10;;;15.70;99.90;;;;;;5093974;28;20530;-74
2022/10/11 11:12:17;;;;;;;3.35;0.47;;;15.70;99.90;;;;;;5091889;28;20082;-74
2022/10/11 11:14:51;;;;;;;9.20;0.40;;;15.70;99.90;;;;;;5096411;28;20020;-75
2022/10/11 11:17:44;;;;;;;3.70;0.03;;;15.90;99.90;;;;;;5095251;28;20031;-75
2022/10/11 11:20:23;;;;;;;5.72;0.60;;;16.20;99.90;;;;;;5096256;28;20138;-74
2022/10/11 11:22:52;;;;;;;3.33;0.47;;;16.40;99.90;;;;;;5096419;28;20020;-75
2022/10/11 11:25:37;;;;;;;3.45;0.10;;;16.30;99.90;;;;;;5096415;28;20031;-74
2022/10/11 11:28:32;;;;;;;3.13;0.00;;;16.10;99.90;;;;;;5096856;28;20053;-74
2022/10/11 11:31:22;;;;;;;3.47;0.00;;;15.90;99.90;;;;;;5079274;28;20024;-75
2022/10/11 11:34:00;;;;;;;3.20;0.10;;;15.70;99.90;;;;;;5094908;28;20024;-73
2022/10/11 11:36:50;;;;;;;3.03;0.03;;;15.50;99.90;;;;;;5094959;28;20020;-74
2022/10/11 11:39:23;;;;;;;2.80;0.10;;;15.50;99.90;;;;;;5095767;28;20047;-76
2022/10/11 11:42:02;;;;;;;3.10;0.28;;;15.40;99.90;;;;;;5095634;28;20060;-75
2022/10/11 11:44:32;;;;;;;;;;;15.40;99.90;;;;;;5095479;28;20546;-75
2022/10/11 11:47:03;;;;;;;5.13;0.10;;;15.30;99.90;;;;;;5095950;28;19915;-74
2022/10/11 11:50:01;;;;;;;9.88;0.43;;;15.10;99.90;;;;;;5095708;28;20065;-74
2022/10/11 11:52:34;;;;;;;7.97;0.00;;;14.90;99.90;;;;;;5094023;28;20032;-74
2022/10/11 11:55:18;;;;;;;3.75;0.00;;;14.80;99.90;;;;;;5096309;28;20026;-75
2022/10/11 11:58:16;;;;;;;3.95;0.00;;;15.20;99.90;;;;;;5095737;28;20024;-74
2022/10/11 12:01:05;;;;;;;2.95;0.40;;;15.70;99.90;;;;;;5096054;28;20021;-74
2022/10/11 12:03:37;;;;;;;9.65;0.30;;;16.30;99.90;;;;;;5094271;28;20040;-75
2022/10/11 12:06:23;;;;;;;9.25;0.40;;;16.90;99.90;;;;;;5094202;28;20027;-74
2022/10/11 12:09:02;;;;;;;2.47;0.25;;;17.10;99.90;;;;;;5095504;28;20051;-75
2022/10/11 12:11:57;;;;;;;5.03;0.10;;;16.90;99.90;;;;;;5095339;28;20016;-75
2022/10/11 12:14:31;;;;;;;9.93;0.20;;;16.60;99.90;;;;;;5095392;28;20023;-75
2022/10/11 12:17:17;;;;;;;4.93;0.35;;;16.40;99.90;;;;;;5093968;28;20031;-75
2022/10/11 12:20:07;;;;;;;5.40;0.20;;;16.10;99.90;;;;;;5093760;28;20027;-74
2022/10/11 12:22:32;;;;;;;7.95;0.57;;;15.90;99.90;;;;;;5093869;28;20371;-74
2022/10/11 12:25:21;;;;;;;3.10;0.50;;;15.70;99.90;;;;;;5095152;28;20077;-74
2022/10/11 12:27:50;;;;;;;4.13;0.43;;;15.60;99.90;;;;;;5087407;28;20040;-74
2022/10/11 12:30:46;;;;;;;2.75;0.52;;;15.50;99.90;;;;;;5095028;28;20024;-74
2022/10/11 12:33:21;;;;;;;3.97;0.00;;;15.40;99.90;;;;;;5094603;28;20115;-74
2022/10/11 12:36:18;;;;;;;6.90;0.28;;;15.30;99.90;;;;;;5094040;28;20023;-76
2022/10/11 12:38:44;;;;;;;5.30;0.38;;;15.20;99.90;;;;;;5077986;28;20046;-76
2022/10/11 12:41:09;;;;;;;5.35;0.13;;;15.20;99.90;;;;;;5093872;28;20122;-73
2022/10/11 12:44:07;;;;;;;2.75;0.25;;;15.30;99.90;;;;;;5107390;22;20097;-76
2022/10/11 12:46:41;;;;;;;3.85;0.28;;;15.50;99.90;;;;;;5095414;28;20489;-75
2022/10/11 12:49:40;;;;;;;5.00;0.32;;;15.80;99.90;;;;;;5096078;28;20016;-75
2022/10/11 12:52:24;;;;;;;3.20;0.03;;;15.90;99.90;;;;;;5073140;28;20115;-75
2022/10/11 12:55:09;;;;;;;4.20;0.32;;;15.90;99.90;;;;;;5074296;28;20021;-75
2022/10/11 12:58:06;;;;;;;3.58;0.17;;;15.90;99.90;;;;;;5074247;28;20024;-75
2022/10/11 13:01:02;;;;;;;7.57;0.52;;;15.80;99.90;;;;;;5072879;28;20028;-75
2022/10/11 13:03:59;;;;;;;4.50;0.85;;;15.80;99.90;;;;;;5074051;28;20475;-74
2022/10/11 13:06:44;;;;;;;5.20;0.47;;;15.90;99.90;;;;;;5074396;28;20035;-76
2022/10/11 13:09:09;;;;;;;2.55;0.00;;;15.90;99.90;;;;;;5073080;28;20025;-76
2022/10/11 13:11:43;;;;;;;9.95;0.68;;;16.20;99.90;;;;;;5072677;28;20119;-76
2022/10/11 13:14:18;;;;;;;2.38;0.10;;;16.80;99.90;;;;;;5072683;28;20017;-76
2022/10/11 13:16:56;;;;;;;8.30;0.10;;;17.60;99.90;;;;;;5074674;28;20033;-78
2022/10/11 13:19:22;;;;;;;2.90;0.03;;;18.30;99.90;;;;;;5073726;28;20112;-78
2022/10/11 13:21:54;;;;;;;4.40;0.43;;;19.10;99.90;;;;;;5074438;28;20286;-74
2022/10/11 13:24:21;;;;;;;4.10;0.17;;;19.80;99.90;;;;;;5100514;22;20036;-77
2022/10/11 13:26:49;;;;;;;5.53;0.13;;;20.00;99.90;;;;;;5076409;28;20038;-77